createdAt,value
2022-12-11T00:00:50.647Z,92.52
2022-12-11T00:01:51.085Z,92.42
2022-12-11T00:02:51.429Z,92.42
2022-12-11T00:03:51.737Z,92.52
2022-12-11T00:04:52.076Z,92.73
2022-12-11T00:05:52.431Z,93.05
2022-12-11T00:06:52.835Z,93.05
2022-12-11T00:07:53.249Z,93.36
2022-12-11T00:08:53.525Z,93.36
2022-12-11T00:09:53.880Z,93.05
2022-12-11T00:10:54.242Z,92.83
2022-12-11T00:11:54.594Z,92.73
2022-12-11T00:12:54.938Z,92.83
2022-12-11T00:13:55.296Z,92.83
2022-12-11T00:14:55.681Z,92.63
2022-12-11T00:15:56.040Z,91.68
2022-12-11T00:16:56.469Z,92.52
2022-12-11T00:17:56.794Z,92.52
2022-12-11T00:18:57.151Z,92.83
2022-12-11T00:19:57.503Z,93.57
2022-12-11T00:20:57.867Z,93.99
2022-12-11T00:21:58.236Z,93.93
2022-12-11T00:22:58.585Z,93.05
2022-12-11T00:23:58.946Z,93.47
2022-12-11T00:24:59.429Z,93.88
2022-12-11T00:25:59.678Z,93.99
2022-12-11T00:27:00.073Z,94.10
2022-12-11T00:28:00.408Z,93.99
2022-12-11T00:29:00.779Z,93.88
2022-12-11T00:30:01.131Z,93.88
2022-12-11T00:31:01.489Z,93.68
2022-12-11T00:32:01.973Z,93.57
2022-12-11T00:33:02.233Z,93.78
2022-12-11T00:34:02.588Z,93.78
2022-12-11T00:35:02.945Z,93.88
2022-12-11T00:36:03.317Z,93.26
2022-12-11T00:37:03.755Z,92.52
2022-12-11T00:38:04.011Z,92.52
2022-12-11T00:39:04.381Z,92.63
2022-12-11T00:40:04.739Z,92.63
2022-12-11T00:41:05.094Z,92.21
2022-12-11T00:42:05.517Z,92.32
2022-12-11T00:43:05.793Z,92.42
2022-12-11T00:44:06.155Z,92.73
2022-12-11T00:45:06.520Z,92.73
2022-12-11T00:46:06.987Z,92.94
2022-12-11T00:47:07.264Z,93.15
2022-12-11T00:48:07.617Z,93.26
2022-12-11T00:49:07.980Z,93.15
2022-12-11T00:50:08.337Z,93.26
2022-12-11T00:51:08.691Z,93.47
2022-12-11T00:52:09.066Z,93.36
2022-12-11T00:53:09.421Z,93.47
2022-12-11T00:54:09.772Z,93.26
2022-12-11T00:55:10.488Z,93.19
2022-12-11T00:56:10.516Z,93.40
2022-12-11T00:57:10.886Z,93.51
2022-12-11T00:58:11.233Z,93.62
2022-12-11T00:59:11.599Z,93.72
2022-12-11T01:00:11.958Z,93.82
2022-12-11T01:01:12.466Z,93.93
2022-12-11T01:02:12.681Z,94.04
2022-12-11T01:03:13.096Z,93.82
2022-12-11T01:04:13.397Z,93.93
2022-12-11T01:05:13.746Z,94.04
2022-12-11T01:06:14.097Z,93.93
2022-12-11T01:07:14.493Z,93.93
2022-12-11T01:08:14.837Z,93.82
2022-12-11T01:09:15.208Z,93.82
2022-12-11T01:10:15.561Z,94.14
2022-12-11T01:11:15.942Z,94.24
2022-12-11T01:12:16.301Z,94.04
2022-12-11T01:13:16.647Z,93.82
2022-12-11T01:14:17.009Z,93.82
2022-12-11T01:15:17.367Z,93.82
2022-12-11T01:16:17.749Z,94.04
2022-12-11T01:17:18.097Z,93.62
2022-12-11T01:18:18.446Z,93.72
2022-12-11T01:19:18.801Z,93.62
2022-12-11T01:20:19.163Z,93.82
2022-12-11T01:21:19.544Z,93.93
2022-12-11T01:22:19.915Z,93.40
2022-12-11T01:23:20.265Z,93.51
2022-12-11T01:24:20.624Z,93.72
2022-12-11T01:25:20.979Z,93.82
2022-12-11T01:26:21.343Z,94.14
2022-12-11T01:27:21.711Z,94.04
2022-12-11T01:28:22.069Z,93.62
2022-12-11T01:29:22.426Z,93.72
2022-12-11T01:30:22.775Z,93.82
2022-12-11T01:31:23.138Z,93.82
2022-12-11T01:32:23.518Z,93.72
2022-12-11T01:33:23.868Z,94.24
2022-12-11T01:34:24.221Z,94.04
2022-12-11T01:35:24.602Z,93.93
2022-12-11T01:36:24.981Z,94.14
2022-12-11T01:37:25.346Z,94.14
2022-12-11T01:38:25.694Z,94.35
2022-12-11T01:39:26.060Z,94.49
2022-12-11T01:40:26.428Z,94.49
2022-12-11T01:41:26.783Z,94.67
2022-12-11T01:42:27.201Z,94.71
2022-12-11T01:43:27.520Z,94.87
2022-12-11T01:44:27.887Z,94.98
2022-12-11T01:45:28.272Z,94.81
2022-12-11T01:46:28.642Z,94.87
2022-12-11T01:47:28.965Z,94.81
2022-12-11T01:48:29.322Z,94.87
2022-12-11T01:49:29.686Z,94.56
2022-12-11T01:50:30.040Z,94.67
2022-12-11T01:51:30.402Z,94.56
2022-12-11T01:52:30.797Z,94.60
2022-12-11T01:53:31.107Z,94.71
2022-12-11T01:54:31.471Z,93.76
2022-12-11T01:55:31.814Z,94.08
2022-12-11T01:56:32.170Z,93.51
2022-12-11T01:57:32.564Z,93.30
2022-12-11T01:58:32.888Z,93.62
2022-12-11T01:59:33.237Z,93.93
2022-12-11T02:00:33.604Z,94.14
2022-12-11T02:01:33.998Z,94.29
2022-12-11T02:02:34.400Z,94.56
2022-12-11T02:03:34.696Z,94.56
2022-12-11T02:04:35.096Z,94.67
2022-12-11T02:05:35.475Z,94.45
2022-12-11T02:06:35.813Z,94.56
2022-12-11T02:07:36.180Z,94.56
2022-12-11T02:08:36.536Z,94.67
2022-12-11T02:09:36.892Z,94.67
2022-12-11T02:10:37.252Z,94.67
2022-12-11T02:11:37.608Z,94.67
2022-12-11T02:12:37.983Z,94.39
2022-12-11T02:13:38.339Z,94.71
2022-12-11T02:14:38.695Z,95.02
2022-12-11T02:15:39.052Z,95.13
2022-12-11T02:16:39.490Z,95.08
2022-12-11T02:17:39.817Z,95.02
2022-12-11T02:18:40.158Z,95.23
2022-12-11T02:19:40.524Z,95.44
2022-12-11T02:20:40.884Z,95.44
2022-12-11T02:21:41.228Z,95.19
2022-12-11T02:22:41.601Z,95.40
2022-12-11T02:23:41.961Z,95.19
2022-12-11T02:24:42.306Z,95.19
2022-12-11T02:25:42.670Z,95.19
2022-12-11T02:26:43.022Z,95.34
2022-12-11T02:27:43.393Z,95.54
2022-12-11T02:28:43.749Z,95.44
2022-12-11T02:29:44.098Z,95.29
2022-12-11T02:30:44.456Z,95.13
2022-12-11T02:31:44.840Z,95.23
2022-12-11T02:32:45.207Z,95.34
2022-12-11T02:33:45.545Z,95.54
2022-12-11T02:34:45.909Z,95.34
2022-12-11T02:35:46.251Z,95.34
2022-12-11T02:36:46.660Z,95.44
2022-12-11T02:37:46.992Z,95.34
2022-12-11T02:38:47.344Z,95.23
2022-12-11T02:39:47.702Z,95.13
2022-12-11T02:40:48.073Z,95.34
2022-12-11T02:41:48.421Z,95.34
2022-12-11T02:42:48.837Z,95.44
2022-12-11T02:43:49.151Z,95.54
2022-12-11T02:44:49.508Z,95.44
2022-12-11T02:45:49.915Z,95.44
2022-12-11T02:46:50.242Z,95.54
2022-12-11T02:47:50.627Z,95.76
2022-12-11T02:48:50.981Z,95.76
2022-12-11T02:49:51.328Z,95.97
2022-12-11T02:50:51.687Z,95.92
2022-12-11T02:51:52.043Z,95.97
2022-12-11T02:52:52.426Z,95.72
2022-12-11T02:53:52.776Z,95.40
2022-12-11T02:54:53.127Z,95.08
2022-12-11T02:55:53.492Z,95.02
2022-12-11T02:56:53.848Z,95.23
2022-12-11T02:57:54.226Z,95.23
2022-12-11T02:58:58.501Z,95.34
2022-12-11T02:59:54.959Z,95.44
2022-12-11T03:00:55.486Z,95.44
2022-12-11T03:01:55.717Z,95.54
2022-12-11T03:02:56.085Z,95.65
2022-12-11T03:03:56.443Z,95.65
2022-12-11T03:04:56.793Z,95.76
2022-12-11T03:05:57.160Z,95.76
2022-12-11T03:06:57.513Z,95.86
2022-12-11T03:07:57.932Z,96.07
2022-12-11T03:08:58.261Z,96.28
2022-12-11T03:09:58.639Z,96.39
2022-12-11T03:10:58.969Z,96.24
2022-12-11T03:11:59.322Z,95.65
2022-12-11T03:12:59.700Z,95.54
2022-12-11T03:14:00.042Z,95.86
2022-12-11T03:15:00.404Z,95.97
2022-12-11T03:16:00.785Z,95.97
2022-12-11T03:17:01.125Z,96.07
2022-12-11T03:18:01.514Z,96.07
2022-12-11T03:19:01.849Z,95.97
2022-12-11T03:20:02.202Z,96.18
2022-12-11T03:21:02.564Z,95.86
2022-12-11T03:22:02.924Z,95.76
2022-12-11T03:23:03.296Z,95.97
2022-12-11T03:24:03.643Z,95.97
2022-12-11T03:25:03.995Z,96.07
2022-12-11T03:26:04.356Z,96.18
2022-12-11T03:27:10.829Z,96.07
2022-12-11T03:28:05.089Z,96.18
2022-12-11T03:29:05.436Z,96.07
2022-12-11T03:30:05.816Z,96.07
2022-12-11T03:31:06.185Z,96.07
2022-12-11T03:32:06.534Z,95.97
2022-12-11T03:33:06.896Z,95.97
2022-12-11T03:34:07.243Z,96.07
2022-12-11T03:35:07.601Z,96.18
2022-12-11T03:36:07.958Z,96.07
2022-12-11T03:37:08.322Z,95.97
2022-12-11T03:38:08.702Z,96.18
2022-12-11T03:39:09.051Z,96.28
2022-12-11T03:40:09.429Z,96.49
2022-12-11T03:41:09.789Z,96.70
2022-12-11T03:42:10.147Z,96.70
2022-12-11T03:43:10.556Z,96.70
2022-12-11T03:44:10.865Z,96.39
2022-12-11T03:45:11.628Z,96.39
2022-12-11T03:46:11.685Z,96.49
2022-12-11T03:47:11.981Z,95.97
2022-12-11T03:48:12.360Z,95.86
2022-12-11T03:49:12.715Z,95.86
2022-12-11T03:50:13.062Z,95.86
2022-12-11T03:51:13.425Z,96.07
2022-12-11T03:52:13.802Z,96.28
2022-12-11T03:53:14.211Z,96.39
2022-12-11T03:54:14.516Z,96.07
2022-12-11T03:55:14.872Z,96.18
2022-12-11T03:56:15.228Z,96.18
2022-12-11T03:57:15.583Z,96.39
2022-12-11T03:58:15.964Z,96.39
2022-12-11T03:59:16.316Z,96.59
2022-12-11T04:00:16.676Z,96.49
2022-12-11T04:01:17.037Z,96.39
2022-12-11T04:02:17.391Z,96.28
2022-12-11T04:03:17.790Z,95.97
2022-12-11T04:04:18.169Z,95.86
2022-12-11T04:05:18.502Z,95.86
2022-12-11T04:06:18.859Z,95.97
2022-12-11T04:07:19.242Z,95.97
2022-12-11T04:08:19.601Z,96.07
2022-12-11T04:09:19.905Z,96.28
2022-12-11T04:10:20.254Z,96.28
2022-12-11T04:11:20.596Z,96.28
2022-12-11T04:12:20.941Z,96.28
2022-12-11T04:13:21.315Z,96.28
2022-12-11T04:14:21.692Z,96.07
2022-12-11T04:15:22.038Z,95.86
2022-12-11T04:16:22.421Z,95.97
2022-12-11T04:17:22.747Z,95.97
2022-12-11T04:18:23.113Z,95.86
2022-12-11T04:19:23.476Z,95.97
2022-12-11T04:20:23.814Z,96.07
2022-12-11T04:21:24.196Z,96.07
2022-12-11T04:22:24.544Z,95.97
2022-12-11T04:23:24.913Z,95.97
2022-12-11T04:24:25.270Z,95.97
2022-12-11T04:25:25.662Z,95.97
2022-12-11T04:26:26.013Z,96.18
2022-12-11T04:27:26.373Z,96.18
2022-12-11T04:28:26.749Z,96.33
2022-12-11T04:29:27.098Z,96.43
2022-12-11T04:30:33.755Z,96.43
2022-12-11T04:31:27.810Z,96.49
2022-12-11T04:32:28.189Z,96.49
2022-12-11T04:33:28.536Z,96.39
2022-12-11T04:34:28.899Z,96.49
2022-12-11T04:35:29.251Z,96.49
2022-12-11T04:36:29.601Z,96.70
2022-12-11T04:37:29.968Z,96.59
2022-12-11T04:38:30.342Z,96.70
2022-12-11T04:39:30.687Z,96.81
2022-12-11T04:40:31.035Z,96.59
2022-12-11T04:41:31.391Z,96.75
2022-12-11T04:42:31.755Z,96.70
2022-12-11T04:43:32.161Z,96.70
2022-12-11T04:44:32.473Z,96.70
2022-12-11T04:45:32.844Z,96.59
2022-12-11T04:46:33.339Z,96.59
2022-12-11T04:47:33.537Z,96.39
2022-12-11T04:48:33.911Z,96.39
2022-12-11T04:49:34.259Z,96.49
2022-12-11T04:50:34.625Z,96.49
2022-12-11T04:51:34.974Z,96.49
2022-12-11T04:52:35.328Z,96.59
2022-12-11T04:53:35.704Z,96.59
2022-12-11T04:54:36.050Z,96.70
2022-12-11T04:55:36.411Z,96.70
2022-12-11T04:56:36.757Z,96.59
2022-12-11T04:57:37.112Z,96.81
2022-12-11T04:58:37.482Z,97.02
2022-12-11T04:59:37.838Z,97.23
2022-12-11T05:00:38.192Z,97.33
2022-12-11T05:01:38.660Z,97.23
2022-12-11T05:02:38.958Z,97.33
2022-12-11T05:03:39.295Z,97.44
2022-12-11T05:04:39.640Z,97.23
2022-12-11T05:05:40.004Z,97.12
2022-12-11T05:06:40.362Z,97.23
2022-12-11T05:07:40.720Z,97.12
2022-12-11T05:08:41.090Z,97.02
2022-12-11T05:09:41.431Z,96.91
2022-12-11T05:10:45.753Z,96.91
2022-12-11T05:11:42.143Z,96.91
2022-12-11T05:12:42.498Z,97.02
2022-12-11T05:13:42.873Z,97.02
2022-12-11T05:14:43.224Z,96.70
2022-12-11T05:15:43.664Z,96.59
2022-12-11T05:16:43.955Z,96.70
2022-12-11T05:17:44.323Z,96.49
2022-12-11T05:18:44.706Z,96.28
2022-12-11T05:19:45.059Z,96.28
2022-12-11T05:20:45.426Z,94.81
2022-12-11T05:21:45.774Z,94.92
2022-12-11T05:22:46.122Z,94.60
2022-12-11T05:23:46.489Z,94.71
2022-12-11T05:24:46.841Z,94.92
2022-12-11T05:25:47.188Z,95.02
2022-12-11T05:26:47.545Z,94.71
2022-12-11T05:27:47.896Z,94.81
2022-12-11T05:28:48.277Z,94.92
2022-12-11T05:29:48.627Z,94.60
2022-12-11T05:30:48.987Z,94.71
2022-12-11T05:31:49.350Z,94.92
2022-12-11T05:32:49.710Z,94.49
2022-12-11T05:33:50.080Z,94.18
2022-12-11T05:34:50.428Z,93.62
2022-12-11T05:35:50.783Z,93.72
2022-12-11T05:36:51.137Z,93.09
2022-12-11T05:37:51.511Z,92.25
2022-12-11T05:38:51.876Z,91.52
2022-12-11T05:39:52.227Z,91.41
2022-12-11T05:40:52.585Z,91.62
2022-12-11T05:41:52.944Z,91.41
2022-12-11T05:42:53.297Z,91.09
2022-12-11T05:43:53.732Z,90.78
2022-12-11T05:44:53.993Z,90.67
2022-12-11T05:45:54.355Z,90.57
2022-12-11T05:46:54.768Z,90.25
2022-12-11T05:47:55.077Z,89.84
2022-12-11T05:48:55.464Z,89.42
2022-12-11T05:49:55.815Z,88.89
2022-12-11T05:50:56.171Z,88.57
2022-12-11T05:51:56.525Z,88.57
2022-12-11T05:52:56.910Z,88.68
2022-12-11T05:53:57.283Z,88.57
2022-12-11T05:54:57.638Z,88.16
2022-12-11T05:55:57.992Z,88.05
2022-12-11T05:56:58.347Z,87.84
2022-12-11T05:57:58.702Z,87.74
2022-12-11T05:58:59.079Z,87.32
2022-12-11T05:59:59.409Z,87.42
2022-12-11T06:00:59.775Z,87.42
2022-12-11T06:02:00.251Z,87.32
2022-12-11T06:03:00.627Z,87.00
2022-12-11T06:04:00.870Z,86.58
2022-12-11T06:05:01.210Z,86.47
2022-12-11T06:06:01.562Z,86.16
2022-12-11T06:07:01.958Z,86.06
2022-12-11T06:08:02.365Z,85.53
2022-12-11T06:09:02.715Z,85.42
2022-12-11T06:10:03.063Z,85.53
2022-12-11T06:11:03.422Z,85.53
2022-12-11T06:12:03.773Z,85.42
2022-12-11T06:13:04.143Z,85.74
2022-12-11T06:14:04.501Z,85.95
2022-12-11T06:15:04.869Z,86.16
2022-12-11T06:16:05.269Z,86.47
2022-12-11T06:17:05.569Z,86.37
2022-12-11T06:18:05.963Z,86.27
2022-12-11T06:19:06.337Z,86.47
2022-12-11T06:20:06.683Z,86.69
2022-12-11T06:21:07.041Z,86.69
2022-12-11T06:22:07.397Z,86.79
2022-12-11T06:23:07.753Z,86.79
2022-12-11T06:24:08.163Z,86.79
2022-12-11T06:25:08.686Z,86.58
2022-12-11T06:26:08.862Z,86.47
2022-12-11T06:27:09.216Z,86.47
2022-12-11T06:28:09.579Z,86.47
2022-12-11T06:29:12.891Z,86.69
2022-12-11T06:30:10.316Z,87.00
2022-12-11T06:31:10.719Z,87.42
2022-12-11T06:32:11.060Z,87.00
2022-12-11T06:33:11.408Z,86.79
2022-12-11T06:34:11.809Z,86.79
2022-12-11T06:35:12.498Z,86.58
2022-12-11T06:36:12.496Z,86.79
2022-12-11T06:37:12.857Z,86.79
2022-12-11T06:38:13.213Z,86.58
2022-12-11T06:39:13.584Z,86.47
2022-12-11T06:40:13.931Z,86.58
2022-12-11T06:41:14.296Z,86.58
2022-12-11T06:42:14.653Z,86.47
2022-12-11T06:43:15.053Z,86.37
2022-12-11T06:44:15.441Z,86.47
2022-12-11T06:45:15.815Z,86.47
2022-12-11T06:46:16.309Z,86.79
2022-12-11T06:47:16.329Z,86.79
2022-12-11T06:48:16.492Z,87.21
2022-12-11T06:49:16.679Z,87.21
2022-12-11T06:50:16.937Z,87.52
2022-12-11T06:51:17.246Z,87.74
2022-12-11T06:52:18.666Z,88.26
2022-12-11T06:53:17.604Z,88.72
2022-12-11T06:54:17.775Z,88.68
2022-12-11T06:55:17.955Z,88.72
2022-12-11T06:56:18.220Z,88.93
2022-12-11T06:57:18.384Z,89.25
2022-12-11T06:58:18.549Z,89.46
2022-12-11T06:59:18.753Z,89.14
2022-12-11T07:00:18.944Z,89.04
2022-12-11T07:01:19.140Z,89.04
2022-12-11T07:02:19.322Z,89.35
2022-12-11T07:03:19.435Z,89.67
2022-12-11T07:04:19.637Z,89.67
2022-12-11T07:05:20.412Z,89.77
2022-12-11T07:06:20.092Z,90.02
2022-12-11T07:07:20.379Z,90.12
2022-12-11T07:08:20.723Z,90.34
2022-12-11T07:09:20.972Z,90.55
2022-12-11T07:10:21.250Z,90.55
2022-12-11T07:11:21.434Z,90.76
2022-12-11T07:12:21.725Z,90.76
2022-12-11T07:13:21.913Z,90.86
2022-12-11T07:14:22.097Z,90.86
2022-12-11T07:15:22.385Z,90.97
2022-12-11T07:16:22.642Z,91.11
2022-12-11T07:17:22.849Z,91.53
2022-12-11T07:18:23.030Z,91.64
2022-12-11T07:19:23.236Z,91.74
2022-12-11T07:20:23.518Z,91.74
2022-12-11T07:21:23.807Z,92.06
2022-12-11T07:22:23.974Z,92.27
2022-12-11T07:23:24.302Z,92.48
2022-12-11T07:24:24.455Z,92.58
2022-12-11T07:25:24.617Z,92.58
2022-12-11T07:26:24.799Z,92.94
2022-12-11T07:27:24.983Z,92.94
2022-12-11T07:28:25.186Z,93.26
2022-12-11T07:29:25.382Z,93.47
2022-12-11T07:30:25.533Z,93.57
2022-12-11T07:31:25.784Z,93.57
2022-12-11T07:32:26.090Z,94.21
2022-12-11T07:33:26.067Z,94.42
2022-12-11T07:34:26.262Z,94.42
2022-12-11T07:35:26.425Z,94.46
2022-12-11T07:36:26.586Z,94.52
2022-12-11T07:37:26.775Z,94.46
2022-12-11T07:38:26.956Z,94.67
2022-12-11T07:39:27.140Z,94.98
2022-12-11T07:40:27.403Z,95.04
2022-12-11T07:41:27.509Z,95.15
2022-12-11T07:42:27.653Z,95.04
2022-12-11T07:43:27.825Z,94.98
2022-12-11T07:44:28.041Z,94.98
2022-12-11T07:45:28.218Z,94.98
2022-12-11T07:46:28.322Z,95.09
2022-12-11T07:47:28.507Z,95.09
2022-12-11T07:48:28.662Z,95.09
2022-12-11T07:49:28.867Z,94.98
2022-12-11T07:50:29.049Z,94.98
2022-12-11T07:51:29.212Z,94.98
2022-12-11T07:52:29.375Z,94.88
2022-12-11T07:53:29.560Z,95.03
2022-12-11T07:54:29.759Z,95.13
2022-12-11T07:55:29.920Z,95.13
2022-12-11T07:56:30.102Z,95.34
2022-12-11T07:57:30.300Z,95.55
2022-12-11T07:58:30.461Z,95.55
2022-12-11T07:59:30.655Z,95.55
2022-12-11T08:00:30.816Z,95.24
2022-12-11T08:01:31.046Z,95.13
2022-12-11T08:02:35.592Z,95.03
2022-12-11T08:03:31.371Z,94.92
2022-12-11T08:04:31.548Z,94.92
2022-12-11T08:05:31.702Z,94.92
2022-12-11T08:06:31.879Z,95.03
2022-12-11T08:07:32.049Z,94.92
2022-12-11T08:08:32.207Z,94.92
2022-12-11T08:09:32.394Z,94.60
2022-12-11T08:10:32.558Z,94.29
2022-12-11T08:11:32.742Z,94.18
2022-12-11T08:12:32.942Z,94.08
2022-12-11T08:13:33.146Z,93.76
2022-12-11T08:14:33.463Z,93.66
2022-12-11T08:15:33.631Z,93.55
2022-12-11T08:16:33.822Z,93.30
2022-12-11T08:17:38.426Z,93.19
2022-12-11T08:18:34.153Z,93.03
2022-12-11T08:19:34.345Z,92.99
2022-12-11T08:20:34.542Z,92.99
2022-12-11T08:21:34.732Z,92.88
2022-12-11T08:22:34.913Z,92.71
2022-12-11T08:23:35.103Z,92.50
2022-12-11T08:24:35.419Z,92.14
2022-12-11T08:25:35.565Z,92.04
2022-12-11T08:26:35.747Z,91.93
2022-12-11T08:27:35.916Z,91.72
2022-12-11T08:28:36.118Z,91.72
2022-12-11T08:29:37.237Z,91.72
2022-12-11T08:30:36.544Z,91.72
2022-12-11T08:31:36.682Z,91.83
2022-12-11T08:32:36.890Z,91.72
2022-12-11T08:33:37.076Z,91.62
2022-12-11T08:34:37.269Z,91.51
2022-12-11T08:35:37.435Z,91.41
2022-12-11T08:36:37.673Z,91.41
2022-12-11T08:37:37.820Z,91.62
2022-12-11T08:38:38.023Z,91.72
2022-12-11T08:39:38.221Z,91.83
2022-12-11T08:40:38.410Z,91.93
2022-12-11T08:41:38.610Z,91.62
2022-12-11T08:42:38.787Z,91.62
2022-12-11T08:43:38.976Z,91.51
2022-12-11T08:44:39.221Z,91.30
2022-12-11T08:45:39.344Z,91.30
2022-12-11T08:46:39.529Z,91.20
2022-12-11T08:47:39.736Z,91.09
2022-12-11T08:48:39.896Z,90.88
2022-12-11T08:49:40.104Z,90.56
2022-12-11T08:50:40.303Z,90.56
2022-12-11T08:51:40.496Z,90.56
2022-12-11T08:52:40.718Z,90.56
2022-12-11T08:53:40.887Z,90.42
2022-12-11T08:54:41.116Z,90.21
2022-12-11T08:55:41.263Z,90.21
2022-12-11T08:56:41.448Z,90.21
2022-12-11T08:57:41.641Z,90.11
2022-12-11T08:58:41.868Z,90.00
2022-12-11T08:59:42.045Z,89.58
2022-12-11T09:00:42.228Z,89.37
2022-12-11T09:01:42.458Z,89.37
2022-12-11T09:02:42.633Z,89.26
2022-12-11T09:03:42.800Z,89.47
2022-12-11T09:04:42.987Z,89.26
2022-12-11T09:05:43.179Z,88.95
2022-12-11T09:06:43.367Z,89.16
2022-12-11T09:07:43.564Z,89.16
2022-12-11T09:08:48.565Z,88.74
2022-12-11T09:09:43.953Z,88.53
2022-12-11T09:10:44.124Z,88.53
2022-12-11T09:11:44.312Z,88.53
2022-12-11T09:12:44.506Z,88.53
2022-12-11T09:13:44.695Z,88.53
2022-12-11T09:14:44.916Z,88.49
2022-12-11T09:15:45.080Z,88.38
2022-12-11T09:16:45.245Z,88.38
2022-12-11T09:17:45.446Z,88.49
2022-12-11T09:18:45.631Z,88.59
2022-12-11T09:19:45.860Z,88.59
2022-12-11T09:20:46.014Z,88.49
2022-12-11T09:21:46.194Z,88.28
2022-12-11T09:22:46.378Z,88.28
2022-12-11T09:23:46.561Z,88.38
2022-12-11T09:24:46.764Z,88.07
2022-12-11T09:25:46.955Z,87.75
2022-12-11T09:26:47.150Z,87.65
2022-12-11T09:27:47.344Z,87.85
2022-12-11T09:28:47.545Z,87.75
2022-12-11T09:29:47.758Z,87.75
2022-12-11T09:30:47.977Z,87.75
2022-12-11T09:31:48.096Z,87.75
2022-12-11T09:32:48.299Z,87.75
2022-12-11T09:33:48.502Z,87.96
2022-12-11T09:34:48.707Z,87.85
2022-12-11T09:35:48.897Z,87.54
2022-12-11T09:36:49.108Z,87.54
2022-12-11T09:37:49.267Z,87.44
2022-12-11T09:38:49.440Z,87.50
2022-12-11T09:39:49.649Z,87.40
2022-12-11T09:40:49.830Z,87.08
2022-12-11T09:41:50.021Z,86.87
2022-12-11T09:42:50.214Z,86.98
2022-12-11T09:43:50.399Z,86.77
2022-12-11T09:44:50.661Z,86.77
2022-12-11T09:45:50.841Z,87.29
2022-12-11T09:46:51.053Z,87.19
2022-12-11T09:47:51.166Z,86.87
2022-12-11T09:48:51.361Z,86.98
2022-12-11T09:49:51.557Z,86.98
2022-12-11T09:50:51.712Z,86.87
2022-12-11T09:51:51.907Z,86.45
2022-12-11T09:52:52.103Z,86.35
2022-12-11T09:53:52.295Z,86.24
2022-12-11T09:54:52.498Z,86.03
2022-12-11T09:55:52.692Z,86.13
2022-12-11T09:56:52.877Z,85.82
2022-12-11T09:57:53.055Z,85.61
2022-12-11T09:58:53.257Z,86.66
2022-12-11T09:59:53.451Z,86.45
2022-12-11T10:00:53.606Z,86.35
2022-12-11T10:01:53.825Z,86.35
2022-12-11T10:02:54.034Z,86.13
2022-12-11T10:03:54.198Z,85.61
2022-12-11T10:04:54.386Z,85.40
2022-12-11T10:05:57.333Z,85.19
2022-12-11T10:06:54.768Z,85.30
2022-12-11T10:07:55.011Z,85.61
2022-12-11T10:08:55.146Z,85.61
2022-12-11T10:09:55.339Z,85.82
2022-12-11T10:10:55.533Z,85.82
2022-12-11T10:11:56.866Z,85.61
2022-12-11T10:12:55.901Z,85.72
2022-12-11T10:13:56.087Z,85.50
2022-12-11T10:14:56.369Z,85.82
2022-12-11T10:15:56.518Z,85.72
2022-12-11T10:16:56.642Z,85.19
2022-12-11T10:18:02.926Z,85.19
2022-12-11T10:18:57.019Z,85.15
2022-12-11T10:19:57.224Z,84.84
2022-12-11T10:20:57.410Z,84.94
2022-12-11T10:21:57.620Z,84.94
2022-12-11T10:22:57.810Z,84.84
2022-12-11T10:23:58.009Z,84.73
2022-12-11T10:25:10.680Z,84.42
2022-12-11T10:25:58.402Z,84.25
2022-12-11T10:26:58.584Z,84.45
2022-12-11T10:27:58.773Z,84.63
2022-12-11T10:28:59.013Z,84.31
2022-12-11T10:29:59.200Z,84.52
2022-12-11T10:30:59.400Z,84.31
2022-12-11T10:31:59.522Z,84.42
2022-12-11T10:32:59.692Z,84.63
2022-12-11T10:33:59.900Z,84.63
2022-12-11T10:35:00.079Z,84.69
2022-12-11T10:36:00.246Z,84.69
2022-12-11T10:37:00.765Z,83.81
2022-12-11T10:38:00.623Z,82.62
2022-12-11T10:39:00.805Z,81.68
2022-12-11T10:40:01.027Z,80.94
2022-12-11T10:41:01.174Z,80.94
2022-12-11T10:42:01.370Z,81.47
2022-12-11T10:43:01.585Z,81.72
2022-12-11T10:44:01.741Z,81.79
2022-12-11T10:45:01.996Z,82.03
2022-12-11T10:46:02.147Z,81.04
2022-12-11T10:47:02.274Z,80.69
2022-12-11T10:48:02.449Z,79.30
2022-12-11T10:49:02.648Z,77.80
2022-12-11T10:50:02.938Z,77.31
2022-12-11T10:51:03.154Z,77.10
2022-12-11T10:52:03.300Z,77.24
2022-12-11T10:53:03.467Z,77.66
2022-12-11T10:54:07.125Z,77.55
2022-12-11T10:55:03.837Z,77.91
2022-12-11T10:56:04.016Z,78.32
2022-12-11T10:57:04.216Z,78.29
2022-12-11T10:58:04.386Z,77.83
2022-12-11T10:59:04.690Z,76.96
2022-12-11T11:00:04.890Z,76.75
2022-12-11T11:01:05.033Z,76.89
2022-12-11T11:02:05.311Z,77.00
2022-12-11T11:03:05.460Z,76.89
2022-12-11T11:04:05.708Z,77.59
2022-12-11T11:05:05.945Z,77.03
2022-12-11T11:06:06.100Z,76.79
2022-12-11T11:07:06.282Z,75.43
2022-12-11T11:08:06.527Z,74.98
2022-12-11T11:09:06.635Z,74.69
2022-12-11T11:10:06.857Z,75.78
2022-12-11T11:11:06.995Z,76.09
2022-12-11T11:12:08.187Z,76.30
2022-12-11T11:13:07.349Z,76.75
2022-12-11T11:14:07.549Z,77.24
2022-12-11T11:15:07.749Z,76.61
2022-12-11T11:16:08.033Z,75.78
2022-12-11T11:17:08.214Z,75.98
2022-12-11T11:18:08.494Z,76.33
2022-12-11T11:19:08.680Z,76.86
2022-12-11T11:20:08.875Z,76.20
2022-12-11T11:21:09.015Z,76.02
2022-12-11T11:22:09.191Z,76.44
2022-12-11T11:23:09.355Z,76.40
2022-12-11T11:24:09.534Z,76.44
2022-12-11T11:25:09.994Z,76.57
2022-12-11T11:26:09.867Z,75.36
2022-12-11T11:27:13.893Z,76.12
2022-12-11T11:28:10.309Z,78.22
2022-12-11T11:29:10.413Z,78.22
2022-12-11T11:30:10.596Z,78.50
2022-12-11T11:31:10.857Z,77.97
2022-12-11T11:32:10.902Z,77.42
2022-12-11T11:33:11.093Z,77.66
2022-12-11T11:34:11.261Z,77.62
2022-12-11T11:35:11.948Z,77.14
2022-12-11T11:36:11.631Z,77.91
2022-12-11T11:37:11.806Z,78.43
2022-12-11T11:38:11.997Z,78.53
2022-12-11T11:39:12.171Z,78.18
2022-12-11T11:40:12.339Z,77.91
2022-12-11T11:41:15.131Z,78.11
2022-12-11T11:42:12.697Z,77.69
2022-12-11T11:43:12.891Z,77.55
2022-12-11T11:44:13.062Z,76.89
2022-12-11T11:45:13.681Z,77.69
2022-12-11T11:46:13.584Z,76.57
2022-12-11T11:47:13.736Z,74.80
2022-12-11T11:48:14.032Z,75.43
2022-12-11T11:49:14.213Z,76.72
2022-12-11T11:50:14.395Z,77.69
2022-12-11T11:51:14.565Z,78.53
2022-12-11T11:52:14.745Z,78.95
2022-12-11T11:53:14.919Z,78.53
2022-12-11T11:54:15.077Z,78.32
2022-12-11T11:55:20.286Z,77.94
2022-12-11T11:56:15.446Z,76.82
2022-12-11T11:57:15.611Z,77.24
2022-12-11T11:58:15.771Z,77.24
2022-12-11T11:59:15.955Z,77.55
2022-12-11T12:00:16.143Z,77.69
2022-12-11T12:01:16.321Z,78.22
2022-12-11T12:02:16.495Z,78.64
2022-12-11T12:03:16.801Z,78.39
2022-12-11T12:04:16.996Z,77.87
2022-12-11T12:05:17.208Z,77.73
2022-12-11T12:06:17.352Z,76.75
2022-12-11T12:07:17.526Z,76.26
2022-12-11T12:08:17.987Z,76.68
2022-12-11T12:09:18.066Z,77.10
2022-12-11T12:10:18.208Z,77.24
2022-12-11T12:11:18.365Z,77.66
2022-12-11T12:12:25.455Z,78.29
2022-12-11T12:13:47.599Z,78.39
2022-12-11T12:14:50.481Z,77.73
2022-12-11T12:15:19.264Z,77.10
2022-12-11T12:16:51.113Z,77.20
2022-12-11T12:17:19.673Z,76.75
2022-12-11T12:18:19.772Z,76.79
2022-12-11T12:19:19.963Z,77.10
2022-12-11T12:20:20.149Z,76.68
2022-12-11T12:21:20.308Z,75.67
2022-12-11T12:22:20.475Z,76.06
2022-12-11T12:23:20.664Z,77.52
2022-12-11T12:24:20.847Z,77.10
2022-12-11T12:25:21.039Z,76.68
2022-12-11T12:26:21.197Z,76.89
2022-12-11T12:27:51.022Z,76.82
2022-12-11T12:28:21.672Z,76.65
2022-12-11T12:29:21.828Z,77.06
2022-12-11T12:30:23.573Z,77.20
2022-12-11T12:31:22.202Z,77.20
2022-12-11T12:32:22.401Z,77.59
2022-12-11T12:33:22.565Z,76.86
2022-12-11T12:34:22.864Z,76.40
2022-12-11T12:35:23.092Z,76.65
2022-12-11T12:36:23.234Z,76.65
2022-12-11T12:37:23.538Z,76.44
2022-12-11T12:38:23.843Z,76.23
2022-12-11T12:39:24.010Z,76.47
2022-12-11T12:40:24.324Z,77.00
2022-12-11T12:41:24.493Z,77.80
2022-12-11T12:42:24.653Z,77.87
2022-12-11T12:43:24.952Z,76.20
2022-12-11T12:44:25.326Z,75.46
2022-12-11T12:45:25.538Z,75.92
2022-12-11T12:46:25.744Z,76.23
2022-12-11T12:47:25.914Z,76.72
2022-12-11T12:48:26.074Z,76.40
2022-12-11T12:49:26.385Z,75.98
2022-12-11T12:50:26.687Z,76.33
2022-12-11T12:51:26.846Z,76.96
2022-12-11T12:52:27.048Z,77.73
2022-12-11T12:53:27.244Z,77.83
2022-12-11T12:54:27.424Z,78.25
2022-12-11T12:55:27.606Z,78.77
2022-12-11T12:56:27.757Z,78.88